MMUN Airport Information

Runway Information
Runway 12L Length 9186 ft width 148 ft
Elevation 22 ft Threshold 0 ft Heading 124
Runway 30R Length 9186 ft Width 148 ft
Elevation 18 ft Threshold 0 ft Heading 304
Runway 12R Length 11483 ft width 197 ft
Elevation 20 ft Threshold 0 ft Heading 124
Runway 30L Length 11483 ft Width 197 ft
Elevation 18 ft Threshold 0 ft Heading 304
Airport Frequencies
Type APP Name APP Frequency 120.4 MHZ
Type ARR Name ARR Frequency 120.4 MHZ
Type ATIS Name ATIS Frequency 127.7 MHZ
Type CLD Name CLNC DEL Frequency 122.1 MHZ
Type DEP Name DEP Frequency 119.8 MHZ
Type GND Name GND Frequency 121.7 MHZ
Type TWR Name TWR Frequency 118.6 MHZ
Airport Navaids
Type VOR-DME Name Cancun Frequency 113600 KHZ
Airport Weather Information & NOTAM
ADDS - METARS form results

(1800 UTC 18 July 2018)
 
METAR text: MMUN 181745Z 10007KT 7SM SCT015TCU 31/24 A3006 RMK SLP179 57004 965 8/200
Conditions at: MMUN (CANCUN , MX) observed 1745 UTC 18 July 2018
Temperature: 31.0°C (88°F)
Dewpoint: 24.0°C (75°F) [RH = 66%]
Pressure (altimeter): 30.06 inches Hg (1018.0 mb)
[Sea-level pressure: 1017.9 mb]
Winds: from the E (100 degrees) at 8 MPH (7 knots; 3.6 m/s)
Visibility: 7 miles (11 km)
Ceiling: at least 12,000 feet AGL
Clouds: scattered clouds at 1500 feet AGL
Weather: no significant weather observed at this time